createdAt,value
2018-05-27T00:02:22.005Z,20.53
2018-05-27T00:04:50.417Z,20.49
2018-05-27T00:07:18.761Z,20.59
2018-05-27T00:09:47.430Z,20.57
2018-05-27T00:12:16.752Z,20.26
2018-05-27T00:14:45.158Z,20.12
2018-05-27T00:17:13.480Z,20.12
2018-05-27T00:19:41.842Z,20.18
2018-05-27T00:22:10.217Z,20.31
2018-05-27T00:24:39.062Z,20.37
2018-05-27T00:27:07.737Z,20.46
2018-05-27T00:29:36.079Z,20.32
2018-05-27T00:32:04.434Z,20.23
2018-05-27T00:34:32.816Z,20.10
2018-05-27T00:37:01.149Z,20.17
2018-05-27T00:39:29.509Z,20.03
2018-05-27T00:41:57.845Z,20.10
2018-05-27T00:44:26.207Z,19.88
2018-05-27T00:46:54.552Z,19.65
2018-05-27T00:49:23.244Z,19.75
2018-05-27T00:51:51.618Z,19.81
2018-05-27T00:54:19.978Z,20.03
2018-05-27T00:56:48.322Z,20.09
2018-05-27T00:59:17.223Z,20.15
2018-05-27T01:01:45.572Z,20.16
2018-05-27T01:04:14.625Z,20.07
2018-05-27T01:06:43.321Z,19.88
2018-05-27T01:09:11.912Z,19.93
2018-05-27T01:11:40.669Z,19.68
2018-05-27T01:14:09.278Z,19.54
2018-05-27T01:16:37.745Z,19.61
2018-05-27T01:19:06.146Z,19.51
2018-05-27T01:21:35.329Z,19.55
2018-05-27T01:24:04.223Z,19.50
2018-05-27T01:26:32.552Z,19.53
2018-05-27T01:29:00.916Z,19.67
2018-05-27T01:31:29.566Z,19.63
2018-05-27T01:33:58.027Z,19.58
2018-05-27T01:36:27.687Z,19.53
2018-05-27T01:38:56.045Z,19.37
2018-05-27T01:41:24.382Z,19.50
2018-05-27T01:43:53.186Z,19.46
2018-05-27T01:46:21.561Z,19.46
2018-05-27T01:48:49.888Z,19.44
2018-05-27T01:51:18.628Z,19.40
2018-05-27T01:53:46.963Z,19.43
2018-05-27T01:56:15.818Z,19.44
2018-05-27T01:58:44.199Z,19.51
2018-05-27T02:01:12.823Z,19.46
2018-05-27T02:03:41.162Z,19.39
2018-05-27T02:06:09.568Z,19.25
2018-05-27T02:08:37.904Z,19.27
2018-05-27T02:11:06.257Z,19.04
2018-05-27T02:13:34.609Z,19.03
2018-05-27T02:16:02.972Z,18.94
2018-05-27T02:18:31.737Z,18.64
2018-05-27T02:21:00.116Z,18.53
2018-05-27T02:23:28.461Z,18.57
2018-05-27T02:25:57.616Z,18.52
2018-05-27T02:28:25.973Z,18.33
2018-05-27T02:30:54.358Z,18.38
2018-05-27T02:33:22.711Z,18.49
2018-05-27T02:35:51.510Z,18.37
2018-05-27T02:38:19.872Z,18.39
2018-05-27T02:40:48.255Z,18.34
2018-05-27T02:43:16.603Z,18.44
2018-05-27T02:45:45.641Z,18.45
2018-05-27T02:48:13.991Z,18.51
2018-05-27T02:50:42.356Z,18.56
2018-05-27T02:53:10.948Z,18.63
2018-05-27T02:55:39.318Z,18.62
2018-05-27T02:58:07.666Z,18.54
2018-05-27T03:00:36.020Z,18.51
2018-05-27T03:03:04.386Z,18.46
2018-05-27T03:05:32.753Z,18.49
2018-05-27T03:08:01.096Z,18.31
2018-05-27T03:10:29.485Z,18.28
2018-05-27T03:12:58.211Z,18.27
2018-05-27T03:15:27.418Z,18.33
2018-05-27T03:17:55.769Z,18.26
2018-05-27T03:20:24.173Z,17.95
2018-05-27T03:22:52.521Z,18.15
2018-05-27T03:25:21.005Z,17.94
2018-05-27T03:27:49.340Z,18.04
2018-05-27T03:30:18.065Z,17.97
2018-05-27T03:32:46.402Z,18.11
2018-05-27T03:35:15.376Z,18.07
2018-05-27T03:37:43.776Z,18.17
2018-05-27T03:40:12.420Z,18.22
2018-05-27T03:42:41.667Z,18.22
2018-05-27T03:45:11.113Z,18.19
2018-05-27T03:47:39.450Z,18.12
2018-05-27T03:50:07.833Z,18.18
2018-05-27T03:52:37.377Z,18.32
2018-05-27T03:55:06.062Z,18.28
2018-05-27T03:57:34.411Z,18.33
2018-05-27T04:00:02.772Z,18.31
2018-05-27T04:02:33.880Z,18.31
2018-05-27T04:05:14.983Z,18.25
2018-05-27T04:07:55.534Z,18.21
2018-05-27T04:10:23.902Z,18.15
2018-05-27T04:12:52.241Z,17.88
2018-05-27T04:15:20.609Z,17.94
2018-05-27T04:17:49.953Z,18.09
2018-05-27T04:20:18.307Z,18.03
2018-05-27T04:22:47.565Z,18.09
2018-05-27T04:25:15.931Z,18.06
2018-05-27T04:27:44.307Z,18.18
2018-05-27T04:30:12.693Z,18.20
2018-05-27T04:32:41.037Z,18.20
2018-05-27T04:35:09.445Z,18.09
2018-05-27T04:37:38.647Z,18.21
2018-05-27T04:40:07.014Z,18.21
2018-05-27T04:42:35.367Z,18.31
2018-05-27T04:45:03.732Z,18.40
2018-05-27T04:47:32.440Z,18.41
2018-05-27T04:50:00.812Z,18.48
2018-05-27T04:52:29.148Z,18.60
2018-05-27T04:54:57.522Z,18.64
2018-05-27T04:57:26.306Z,18.74
2018-05-27T04:59:54.628Z,18.81
2018-05-27T05:02:23.362Z,18.92
2018-05-27T05:04:52.081Z,18.97
2018-05-27T05:07:20.407Z,19.04
2018-05-27T05:09:48.754Z,19.22
2018-05-27T05:12:17.114Z,19.27
2018-05-27T05:14:45.479Z,19.35
2018-05-27T05:17:14.169Z,19.49
2018-05-27T05:19:42.517Z,19.54
2018-05-27T05:22:10.883Z,19.65
2018-05-27T05:24:39.204Z,19.78
2018-05-27T05:27:07.576Z,19.87
2018-05-27T05:29:36.402Z,19.91
2018-05-27T05:32:04.760Z,20.04
2018-05-27T05:34:33.109Z,20.16
2018-05-27T05:37:01.474Z,20.24
2018-05-27T05:39:30.627Z,20.18
2018-05-27T05:41:59.262Z,20.10
2018-05-27T05:44:27.584Z,20.19
2018-05-27T05:46:55.951Z,20.18
2018-05-27T05:49:24.280Z,20.36
2018-05-27T05:51:52.648Z,20.33
2018-05-27T05:54:21.871Z,20.53
2018-05-27T05:56:50.234Z,20.58
2018-05-27T05:59:18.564Z,20.55
2018-05-27T06:01:46.952Z,20.66
2018-05-27T06:04:15.292Z,20.88
2018-05-27T06:06:43.800Z,21.07
2018-05-27T06:09:12.593Z,21.23
2018-05-27T06:11:40.980Z,21.17
2018-05-27T06:14:09.301Z,21.19
2018-05-27T06:16:37.661Z,21.38
2018-05-27T06:19:07.906Z,21.43
2018-05-27T06:21:36.290Z,21.47
2018-05-27T06:24:05.038Z,21.60
2018-05-27T06:26:34.202Z,21.75
2018-05-27T06:29:02.979Z,21.69
2018-05-27T06:31:31.344Z,21.79
2018-05-27T06:33:59.721Z,22.00
2018-05-27T06:36:28.052Z,22.06
2018-05-27T06:38:56.401Z,22.07
2018-05-27T06:41:25.065Z,22.23
2018-05-27T06:43:53.435Z,22.29
2018-05-27T06:46:21.769Z,22.29
2018-05-27T06:48:50.152Z,22.38
2018-05-27T06:51:18.548Z,22.47
2018-05-27T06:53:46.867Z,22.56
2018-05-27T06:56:15.217Z,22.77
2018-05-27T06:58:43.581Z,22.57
2018-05-27T07:01:11.922Z,22.79
2018-05-27T07:03:41.133Z,23.05
2018-05-27T07:06:09.457Z,23.06
2018-05-27T07:08:38.208Z,23.26
2018-05-27T07:11:06.548Z,23.30
2018-05-27T07:13:35.265Z,23.15
2018-05-27T07:16:04.379Z,23.12
2018-05-27T07:18:32.734Z,23.08
2018-05-27T07:21:01.068Z,23.22
2018-05-27T07:23:29.811Z,23.52
2018-05-27T07:25:58.153Z,23.70
2018-05-27T07:28:26.510Z,23.63
2018-05-27T07:30:55.243Z,24.01
2018-05-27T07:33:23.593Z,24.12
2018-05-27T07:35:51.926Z,24.24
2018-05-27T07:38:20.437Z,24.35
2018-05-27T07:40:48.788Z,24.49
2018-05-27T07:43:17.909Z,24.44
2018-05-27T07:45:46.539Z,24.63
2018-05-27T07:48:14.863Z,24.71
2018-05-27T07:50:43.257Z,25.00
2018-05-27T07:53:11.641Z,24.87
2018-05-27T07:55:40.029Z,24.76
2018-05-27T07:58:08.357Z,25.22
2018-05-27T08:00:37.640Z,25.13
2018-05-27T08:03:05.981Z,24.97
2018-05-27T08:05:34.337Z,24.90
2018-05-27T08:08:02.674Z,24.91
2018-05-27T08:10:31.036Z,24.68
2018-05-27T08:12:59.356Z,24.88
2018-05-27T08:15:28.082Z,25.18
2018-05-27T08:17:56.445Z,25.39
2018-05-27T08:20:25.073Z,25.45
2018-05-27T08:22:53.448Z,25.29
2018-05-27T08:25:21.804Z,25.38
2018-05-27T08:27:50.382Z,25.56
2018-05-27T08:30:19.533Z,25.54
2018-05-27T08:32:47.898Z,25.83
2018-05-27T08:35:16.255Z,26.11
2018-05-27T08:37:45.114Z,26.22
2018-05-27T08:40:14.466Z,26.53
2018-05-27T08:42:42.875Z,26.67
2018-05-27T08:45:11.262Z,26.34
2018-05-27T08:47:40.439Z,26.32
2018-05-27T08:50:08.825Z,26.47
2018-05-27T08:52:38.494Z,26.68
2018-05-27T08:55:06.869Z,27.30
2018-05-27T08:57:36.019Z,27.06
2018-05-27T09:00:05.041Z,27.09
2018-05-27T09:02:33.362Z,27.16
2018-05-27T09:05:02.040Z,27.40
2018-05-27T09:07:30.385Z,27.52
2018-05-27T09:09:58.732Z,27.13
2018-05-27T09:12:27.321Z,26.87
2018-05-27T09:14:56.501Z,27.10
2018-05-27T09:17:24.869Z,27.46
2018-05-27T09:19:54.174Z,27.43
2018-05-27T09:22:22.837Z,27.20
2018-05-27T09:24:51.233Z,27.09
2018-05-27T09:27:22.154Z,27.28
2018-05-27T09:29:50.482Z,27.02
2018-05-27T09:32:19.203Z,27.59
2018-05-27T09:34:48.419Z,27.89
2018-05-27T09:37:16.786Z,27.44
2018-05-27T09:39:45.126Z,27.91
2018-05-27T09:42:13.867Z,27.00
2018-05-27T09:44:42.218Z,27.19
2018-05-27T09:47:11.027Z,27.56
2018-05-27T09:49:39.501Z,27.53
2018-05-27T09:52:08.488Z,27.61
2018-05-27T09:54:39.757Z,27.55
2018-05-27T09:57:08.126Z,27.34
2018-05-27T09:59:36.460Z,28.33
2018-05-27T10:02:04.863Z,28.15
2018-05-27T10:04:33.213Z,28.17
2018-05-27T10:07:01.573Z,28.65
2018-05-27T10:09:30.324Z,29.02
2018-05-27T10:12:00.222Z,29.00
2018-05-27T10:14:28.610Z,28.92
2018-05-27T10:16:57.025Z,29.49
2018-05-27T10:19:25.359Z,29.90
2018-05-27T10:21:53.720Z,29.14
2018-05-27T10:24:22.464Z,29.92
2018-05-27T10:26:50.844Z,30.06
2018-05-27T10:29:19.176Z,29.75
2018-05-27T10:31:47.568Z,30.54
2018-05-27T10:34:15.917Z,30.51
2018-05-27T10:36:44.301Z,30.25
2018-05-27T10:39:12.633Z,30.55
2018-05-27T10:41:41.013Z,30.66
2018-05-27T10:44:09.363Z,30.48
2018-05-27T10:46:37.732Z,30.84
2018-05-27T10:49:06.063Z,30.96
2018-05-27T10:51:34.438Z,30.72
2018-05-27T10:54:03.321Z,30.89
2018-05-27T10:56:31.686Z,31.24
2018-05-27T10:59:00.957Z,31.39
2018-05-27T11:01:29.330Z,30.21
2018-05-27T11:03:57.653Z,30.75
2018-05-27T11:06:26.017Z,31.41
2018-05-27T11:08:54.351Z,31.29
2018-05-27T11:11:23.531Z,31.48
2018-05-27T11:13:51.889Z,31.44
2018-05-27T11:16:20.232Z,31.30
2018-05-27T11:18:49.289Z,30.63
2018-05-27T11:21:17.624Z,30.00
2018-05-27T11:23:45.978Z,29.09
2018-05-27T11:26:14.358Z,28.71
2018-05-27T11:28:42.854Z,29.21
2018-05-27T11:31:11.280Z,29.07
2018-05-27T11:33:39.634Z,29.90
2018-05-27T11:36:08.038Z,29.94
2018-05-27T11:38:36.766Z,29.88
2018-05-27T11:41:05.599Z,30.52
2018-05-27T11:43:33.954Z,30.66
2018-05-27T11:46:02.715Z,31.27
2018-05-27T11:48:32.027Z,30.70
2018-05-27T11:51:00.365Z,30.77
2018-05-27T11:53:28.745Z,31.46
2018-05-27T11:55:57.078Z,31.28
2018-05-27T11:58:25.847Z,30.68
2018-05-27T12:00:54.193Z,31.73
2018-05-27T12:03:22.577Z,31.79
2018-05-27T12:05:50.915Z,32.17
2018-05-27T12:08:19.887Z,32.54
2018-05-27T12:10:48.310Z,32.05
2018-05-27T12:13:16.674Z,31.96
2018-05-27T12:15:45.007Z,31.33
2018-05-27T12:18:13.377Z,30.30
2018-05-27T12:20:43.018Z,30.59
2018-05-27T12:23:11.364Z,30.13
2018-05-27T12:25:39.701Z,29.95
2018-05-27T12:28:08.061Z,30.53
2018-05-27T12:30:36.401Z,30.38
2018-05-27T12:33:06.608Z,30.34
2018-05-27T12:35:34.932Z,30.83
2018-05-27T12:38:03.300Z,30.04
2018-05-27T12:40:31.628Z,30.37
2018-05-27T12:43:00.889Z,29.88
2018-05-27T12:45:29.538Z,29.14
2018-05-27T12:47:57.949Z,28.72
2018-05-27T12:50:26.280Z,29.50
2018-05-27T12:52:54.634Z,30.37
2018-05-27T12:55:22.971Z,30.58
2018-05-27T12:57:51.862Z,30.80
2018-05-27T13:00:20.307Z,30.87
2018-05-27T13:02:49.005Z,31.13
2018-05-27T13:05:18.089Z,30.99
2018-05-27T13:07:46.460Z,31.23
2018-05-27T13:10:14.802Z,30.91
2018-05-27T13:12:43.160Z,30.98
2018-05-27T13:15:11.484Z,30.32
2018-05-27T13:17:39.852Z,30.62
2018-05-27T13:20:08.482Z,31.20
2018-05-27T13:22:36.829Z,31.27
2018-05-27T13:25:05.173Z,32.10
2018-05-27T13:27:33.525Z,31.34
2018-05-27T13:30:01.886Z,31.37
2018-05-27T13:32:30.227Z,30.59
2018-05-27T13:34:58.549Z,30.56
2018-05-27T13:37:26.892Z,31.34
2018-05-27T13:39:55.267Z,31.82
2018-05-27T13:42:25.585Z,31.97
2018-05-27T13:44:53.920Z,32.66
2018-05-27T13:47:22.288Z,32.08
2018-05-27T13:49:50.921Z,32.95
2018-05-27T13:52:19.275Z,31.32
2018-05-27T13:54:47.611Z,30.80
2018-05-27T13:57:15.956Z,31.87
2018-05-27T13:59:44.326Z,32.17
2018-05-27T14:02:12.682Z,32.82
2018-05-27T14:04:41.069Z,33.18
2018-05-27T14:07:10.129Z,33.29
2018-05-27T14:09:38.466Z,32.59
2018-05-27T14:12:06.797Z,32.60
2018-05-27T14:14:35.909Z,32.63
2018-05-27T14:17:04.266Z,31.50
2018-05-27T14:19:33.040Z,30.17
2018-05-27T14:22:01.736Z,30.57
2018-05-27T14:24:30.416Z,30.70
2018-05-27T14:26:59.563Z,31.24
2018-05-27T14:29:27.930Z,31.40
2018-05-27T14:31:56.333Z,32.93
2018-05-27T14:34:24.681Z,33.26
2018-05-27T14:36:53.012Z,33.43
2018-05-27T14:39:21.375Z,33.56
2018-05-27T14:41:49.835Z,33.74
2018-05-27T14:44:18.186Z,33.96
2018-05-27T14:46:46.958Z,33.65
2018-05-27T14:49:15.317Z,32.26
2018-05-27T14:51:43.670Z,33.16
2018-05-27T14:54:12.182Z,33.94
2018-05-27T14:56:40.519Z,33.53
2018-05-27T14:59:08.883Z,32.35
2018-05-27T15:01:37.218Z,32.74
2018-05-27T15:04:05.621Z,33.23
2018-05-27T15:06:34.644Z,33.59
2018-05-27T15:09:03.020Z,33.73
2018-05-27T15:11:31.366Z,33.54
2018-05-27T15:13:59.743Z,33.59
2018-05-27T15:16:28.113Z,33.03
2018-05-27T15:18:57.389Z,33.04
2018-05-27T15:21:25.756Z,32.75
2018-05-27T15:23:54.102Z,32.37
2018-05-27T15:26:22.672Z,32.16
2018-05-27T15:28:51.024Z,32.08
2018-05-27T15:31:19.358Z,31.71
2018-05-27T15:33:47.732Z,31.44
2018-05-27T15:36:16.161Z,31.54
2018-05-27T15:38:44.509Z,31.58
2018-05-27T15:41:13.249Z,31.61
2018-05-27T15:43:42.340Z,31.66
2018-05-27T15:46:10.670Z,31.15
2018-05-27T15:48:39.033Z,31.31
2018-05-27T15:51:08.281Z,31.46
2018-05-27T15:53:36.634Z,31.47
2018-05-27T15:56:04.975Z,31.61
2018-05-27T15:58:33.338Z,31.46
2018-05-27T16:01:01.674Z,31.45
2018-05-27T16:03:30.039Z,31.45
2018-05-27T16:05:59.289Z,31.47
2018-05-27T16:08:27.644Z,31.17
2018-05-27T16:10:55.964Z,31.37
2018-05-27T16:13:24.331Z,31.17
2018-05-27T16:15:52.745Z,31.32
2018-05-27T16:18:21.088Z,31.38
2018-05-27T16:20:49.470Z,31.18
2018-05-27T16:23:17.814Z,31.39
2018-05-27T16:25:46.153Z,31.36
2018-05-27T16:28:14.519Z,31.21
2018-05-27T16:30:42.857Z,31.32
2018-05-27T16:33:11.209Z,31.34
2018-05-27T16:35:39.554Z,30.88
2018-05-27T16:38:08.430Z,30.89
2018-05-27T16:40:37.602Z,30.33
2018-05-27T16:43:05.952Z,30.53
2018-05-27T16:45:34.321Z,30.19
2018-05-27T16:48:02.680Z,30.42
2018-05-27T16:50:31.009Z,30.39
2018-05-27T16:52:59.612Z,30.56
2018-05-27T16:55:27.939Z,30.53
2018-05-27T16:57:56.284Z,30.29
2018-05-27T17:00:24.634Z,30.21
2018-05-27T17:02:53.212Z,30.32
2018-05-27T17:05:21.767Z,30.27
2018-05-27T17:07:50.585Z,30.18
2018-05-27T17:10:19.244Z,29.76
2018-05-27T17:12:47.607Z,29.72
2018-05-27T17:15:15.938Z,29.46
2018-05-27T17:17:45.030Z,29.34
2018-05-27T17:20:13.386Z,29.00
2018-05-27T17:22:41.724Z,28.87
2018-05-27T17:25:10.086Z,28.90
2018-05-27T17:27:38.457Z,28.79
2018-05-27T17:30:06.825Z,28.98
2018-05-27T17:32:35.561Z,28.81
2018-05-27T17:35:03.933Z,28.95
2018-05-27T17:37:33.171Z,28.74
2018-05-27T17:40:01.635Z,28.37
2018-05-27T17:42:29.961Z,28.43
2018-05-27T17:44:58.306Z,28.45
2018-05-27T17:47:26.938Z,28.38
2018-05-27T17:49:55.342Z,28.23
2018-05-27T17:52:23.672Z,28.20
2018-05-27T17:54:52.852Z,28.12
2018-05-27T17:57:21.633Z,28.17
2018-05-27T17:59:49.981Z,27.99
2018-05-27T18:02:18.318Z,27.75
2018-05-27T18:04:46.722Z,27.69
2018-05-27T18:07:15.421Z,27.54
2018-05-27T18:09:43.784Z,27.21
2018-05-27T18:12:12.117Z,27.03
2018-05-27T18:14:40.508Z,26.97
2018-05-27T18:17:08.846Z,26.61
2018-05-27T18:19:37.322Z,26.95
2018-05-27T18:22:06.021Z,26.80
2018-05-27T18:24:34.382Z,26.82
2018-05-27T18:27:02.749Z,26.64
2018-05-27T18:29:31.106Z,26.61
2018-05-27T18:31:59.964Z,26.50
2018-05-27T18:34:29.017Z,26.48
2018-05-27T18:36:57.377Z,26.27
2018-05-27T18:39:25.739Z,25.86
2018-05-27T18:41:54.060Z,25.76
2018-05-27T18:44:22.969Z,25.52
2018-05-27T18:46:52.226Z,25.53
2018-05-27T18:49:20.591Z,25.31
2018-05-27T18:51:48.930Z,25.22
2018-05-27T18:54:17.303Z,25.35
2018-05-27T18:56:45.672Z,25.02
2018-05-27T18:59:14.033Z,24.92
2018-05-27T19:01:43.084Z,25.00
2018-05-27T19:04:11.442Z,24.99
2018-05-27T19:06:39.781Z,24.92
2018-05-27T19:09:08.176Z,24.98
2018-05-27T19:11:36.851Z,25.01
2018-05-27T19:14:05.479Z,24.86
2018-05-27T19:16:33.937Z,24.68
2018-05-27T19:19:02.303Z,24.98
2018-05-27T19:21:30.638Z,24.86
2018-05-27T19:23:59.009Z,24.77
2018-05-27T19:26:28.108Z,24.69
2018-05-27T19:28:56.466Z,24.66
2018-05-27T19:31:25.422Z,24.67
2018-05-27T19:33:54.412Z,24.65
2018-05-27T19:36:23.075Z,24.58
2018-05-27T19:38:51.432Z,24.17
2018-05-27T19:41:20.569Z,24.53
2018-05-27T19:43:48.953Z,24.06
2018-05-27T19:46:18.222Z,24.12
2018-05-27T19:48:46.693Z,24.25
2018-05-27T19:51:15.029Z,24.09
2018-05-27T19:53:43.381Z,23.96
2018-05-27T19:56:11.710Z,23.87
2018-05-27T19:58:40.061Z,23.80
2018-05-27T20:01:08.393Z,23.07
2018-05-27T20:03:36.758Z,22.56
2018-05-27T20:06:05.109Z,22.35
2018-05-27T20:08:35.033Z,22.33
2018-05-27T20:11:04.465Z,22.41
2018-05-27T20:13:33.243Z,22.44
2018-05-27T20:16:01.569Z,22.03
2018-05-27T20:18:29.914Z,22.12
2018-05-27T20:20:58.277Z,21.89
2018-05-27T20:23:26.949Z,22.08
2018-05-27T20:25:55.359Z,22.43
2018-05-27T20:28:23.702Z,22.67
2018-05-27T20:30:54.955Z,22.78
2018-05-27T20:33:23.415Z,22.53
2018-05-27T20:35:52.872Z,21.77
2018-05-27T20:38:21.843Z,21.53
2018-05-27T20:40:51.053Z,21.32
2018-05-27T20:43:19.790Z,21.58
2018-05-27T20:45:48.165Z,21.87
2018-05-27T20:48:16.805Z,21.66
2018-05-27T20:50:45.168Z,21.82
2018-05-27T20:53:13.500Z,20.75
2018-05-27T20:55:41.853Z,20.66
2018-05-27T20:58:10.659Z,20.11
2018-05-27T21:00:39.028Z,20.14
2018-05-27T21:03:07.795Z,20.14
2018-05-27T21:05:36.516Z,20.32
2018-05-27T21:08:04.862Z,19.95
2018-05-27T21:10:33.223Z,19.58
2018-05-27T21:13:01.555Z,19.62
2018-05-27T21:15:29.909Z,19.84
2018-05-27T21:17:58.254Z,19.88
2018-05-27T21:20:26.627Z,19.43
2018-05-27T21:22:55.201Z,19.37
2018-05-27T21:25:23.593Z,19.38
2018-05-27T21:27:51.933Z,19.32
2018-05-27T21:30:21.168Z,19.64
2018-05-27T21:32:49.498Z,19.98
2018-05-27T21:35:17.844Z,20.25
2018-05-27T21:37:46.185Z,20.55
2018-05-27T21:40:14.945Z,20.79
2018-05-27T21:42:43.324Z,20.96
2018-05-27T21:45:12.943Z,20.97
2018-05-27T21:47:41.507Z,21.00
2018-05-27T21:50:10.608Z,20.50
2018-05-27T21:52:38.940Z,19.40
2018-05-27T21:55:08.502Z,19.79
2018-05-27T21:57:37.688Z,19.98
2018-05-27T22:00:06.303Z,20.22
2018-05-27T22:02:36.506Z,20.11
2018-05-27T22:05:04.895Z,20.09
2018-05-27T22:07:33.655Z,20.43
2018-05-27T22:10:02.078Z,20.61
2018-05-27T22:12:30.476Z,20.71
2018-05-27T22:14:59.724Z,20.62
2018-05-27T22:17:28.617Z,20.51
2018-05-27T22:19:57.085Z,20.42
2018-05-27T22:22:25.482Z,20.23
2018-05-27T22:24:56.078Z,20.14
2018-05-27T22:27:25.165Z,19.75
2018-05-27T22:29:53.533Z,19.98
2018-05-27T22:32:21.886Z,19.88
2018-05-27T22:34:50.259Z,19.90
2018-05-27T22:37:19.542Z,20.00
2018-05-27T22:39:48.312Z,19.99
2018-05-27T22:42:17.298Z,20.13
2018-05-27T22:44:45.668Z,20.23
2018-05-27T22:47:15.056Z,20.22
2018-05-27T22:49:44.727Z,20.24
2018-05-27T22:52:13.057Z,20.18
2018-05-27T22:54:41.734Z,20.34
2018-05-27T22:57:10.190Z,20.41
2018-05-27T22:59:39.056Z,20.52
2018-05-27T23:02:07.644Z,20.61
2018-05-27T23:04:36.790Z,20.70
2018-05-27T23:07:05.981Z,20.59
2018-05-27T23:09:34.389Z,20.63
2018-05-27T23:12:03.554Z,20.83
2018-05-27T23:14:31.925Z,20.87
2018-05-27T23:17:00.399Z,20.80
2018-05-27T23:19:29.780Z,20.75
2018-05-27T23:21:58.547Z,20.64
2018-05-27T23:24:26.938Z,20.51
2018-05-27T23:26:55.297Z,20.28
2018-05-27T23:29:23.681Z,20.21
2018-05-27T23:31:52.016Z,20.07
2018-05-27T23:34:20.381Z,20.01
2018-05-27T23:36:50.407Z,19.95
2018-05-27T23:39:18.741Z,20.06
2018-05-27T23:41:47.342Z,20.08
2018-05-27T23:44:15.706Z,20.08
2018-05-27T23:46:44.867Z,20.11
2018-05-27T23:49:14.118Z,19.97
2018-05-27T23:51:43.285Z,19.99
2018-05-27T23:54:11.731Z,19.97
2018-05-27T23:56:40.107Z,19.95
2018-05-27T23:59:08.454Z,19.87
